Terminal Aerodrome Forecast
Issued by NWS

Home | Current Version | Previous Version | Text Only | Print | Product List | Glossary On
Versions: 1 2 3 4 5 6 7 8 9 10 11
000
FTUS43 KDLH 272300
TAFBRD
TAF
KBRD 272337Z 2800/2824 27005KT P6SM OVC070
      TEMPO 2800/2804 -SN BKN020 OVC050
     FM280400 29008KT P6SM -SN SCT015 OVC025
      TEMPO 2805/2809 33011KT 5SM -SN BKN015
     FM281400 35011KT P6SM SCT030=

USA.gov is the U.S. government's official web portal to all federal, state and local government web resources and services.